Mileston, Mississippi
Current Conditions -  °F | °C
As of 10:53 AM on Friday 21 Nov 2014 (Local Time) from KGWO Reporting Station
Clear Clear  
Wind Chill: 67°   Ceiling: Unl
Heat Index: 67°   Visibility: 10mi
Dew Point: 46°   Wind: 8mph
Humidity: 47%   Direction: 180°S
Pressure: 30.31"   Gusts: NA
Location:  33.1467°N, 90.274°W
Report Text: KGWO 211653Z AUTO 18007KT 10SM CLR 19/08 A3031 RMK AO2 SLP265 T01940078 TSNO
Loading
Personal Weather Stations






























Interactive Weather Map New forecast layout! Learn more

10-Day Weather Forecast

Advertisements
Track Severe Weather on mobile